sensor_id;sensor_type;location;lat;lon;timestamp;temperature;humidity
20070;DHT22;10195;50.868;4.382;2023-02-16T00:02:41;8.80;99.90
20070;DHT22;10195;50.868;4.382;2023-02-16T00:05:31;8.80;99.90
20070;DHT22;10195;50.868;4.382;2023-02-16T00:07:58;8.80;99.90
20070;DHT22;10195;50.868;4.382;2023-02-16T00:10:25;8.80;99.90
20070;DHT22;10195;50.868;4.382;2023-02-16T00:12:52;8.90;99.90
20070;DHT22;10195;50.868;4.382;2023-02-16T00:15:36;8.90;99.90
20070;DHT22;10195;50.868;4.382;2023-02-16T00:18:06;8.80;99.90
20070;DHT22;10195;50.868;4.382;2023-02-16T00:20:37;8.80;99.90
20070;DHT22;10195;50.868;4.382;2023-02-16T00:23:03;8.80;99.90
20070;DHT22;10195;50.868;4.382;2023-02-16T00:25:28;8.80;99.90
20070;DHT22;10195;50.868;4.382;2023-02-16T00:27:54;8.70;99.90
20070;DHT22;10195;50.868;4.382;2023-02-16T00:30:21;8.60;99.90
20070;DHT22;10195;50.868;4.382;2023-02-16T00:32:46;8.60;99.90
20070;DHT22;10195;50.868;4.382;2023-02-16T00:35:17;8.60;99.90
20070;DHT22;10195;50.868;4.382;2023-02-16T00:37:43;8.60;99.90
20070;DHT22;10195;50.868;4.382;2023-02-16T00:40:10;8.60;99.90
20070;DHT22;10195;50.868;4.382;2023-02-16T00:42:36;8.60;99.90
20070;DHT22;10195;50.868;4.382;2023-02-16T00:45:03;8.60;99.90
20070;DHT22;10195;50.868;4.382;2023-02-16T00:49:54;8.70;99.90
20070;DHT22;10195;50.868;4.382;2023-02-16T00:55:02;8.60;99.90
20070;DHT22;10195;50.868;4.382;2023-02-16T00:57:33;8.60;99.90
20070;DHT22;10195;50.868;4.382;2023-02-16T01:00:12;8.50;99.90
20070;DHT22;10195;50.868;4.382;2023-02-16T01:02:40;8.50;99.90
20070;DHT22;10195;50.868;4.382;2023-02-16T01:05:06;8.60;99.90
20070;DHT22;10195;50.868;4.382;2023-02-16T01:07:31;8.60;99.90
20070;DHT22;10195;50.868;4.382;2023-02-16T01:10:19;8.60;99.90
20070;DHT22;10195;50.868;4.382;2023-02-16T01:13:04;8.50;99.90
20070;DHT22;10195;50.868;4.382;2023-02-16T01:15:30;8.60;99.90
20070;DHT22;10195;50.868;4.382;2023-02-16T01:17:56;8.50;99.90
20070;DHT22;10195;50.868;4.382;2023-02-16T01:20:24;8.50;99.90
20070;DHT22;10195;50.868;4.382;2023-02-16T01:22:50;8.50;99.90
20070;DHT22;10195;50.868;4.382;2023-02-16T01:25:16;8.50;99.90
20070;DHT22;10195;50.868;4.382;2023-02-16T01:27:42;8.50;99.90
20070;DHT22;10195;50.868;4.382;2023-02-16T01:30:17;8.50;99.90
20070;DHT22;10195;50.868;4.382;2023-02-16T01:32:42;8.50;99.90
20070;DHT22;10195;50.868;4.382;2023-02-16T01:35:12;8.50;99.90
20070;DHT22;10195;50.868;4.382;2023-02-16T01:37:37;8.50;99.90
20070;DHT22;10195;50.868;4.382;2023-02-16T01:40:03;8.60;99.90
20070;DHT22;10195;50.868;4.382;2023-02-16T01:42:37;8.50;99.90
20070;DHT22;10195;50.868;4.382;2023-02-16T01:45:14;8.50;99.90
20070;DHT22;10195;50.868;4.382;2023-02-16T01:47:53;8.50;99.90
20070;DHT22;10195;50.868;4.382;2023-02-16T01:50:22;8.60;99.90
20070;DHT22;10195;50.868;4.382;2023-02-16T01:52:58;8.60;99.90
20070;DHT22;10195;50.868;4.382;2023-02-16T01:55:40;8.70;99.90
20070;DHT22;10195;50.868;4.382;2023-02-16T02:03:23;8.70;99.90
20070;DHT22;10195;50.868;4.382;2023-02-16T02:06:17;8.80;99.90
20070;DHT22;10195;50.868;4.382;2023-02-16T02:08:49;8.80;99.90
20070;DHT22;10195;50.868;4.382;2023-02-16T02:11:27;8.80;99.90
20070;DHT22;10195;50.868;4.382;2023-02-16T02:16:31;8.90;99.90
20070;DHT22;10195;50.868;4.382;2023-02-16T02:18:57;8.80;99.90
20070;DHT22;10195;50.868;4.382;2023-02-16T02:27:40;8.80;99.90
20070;DHT22;10195;50.868;4.382;2023-02-16T02:33:32;8.80;99.90
20070;DHT22;10195;50.868;4.382;2023-02-16T02:36:15;8.80;99.90
20070;DHT22;10195;50.868;4.382;2023-02-16T02:39:14;8.90;99.90
20070;DHT22;10195;50.868;4.382;2023-02-16T02:44:38;8.90;99.90
20070;DHT22;10195;50.868;4.382;2023-02-16T02:47:04;8.90;99.90
20070;DHT22;10195;50.868;4.382;2023-02-16T02:49:30;8.90;99.90
20070;DHT22;10195;50.868;4.382;2023-02-16T02:51:56;8.90;99.90
20070;DHT22;10195;50.868;4.382;2023-02-16T02:54:30;8.90;99.90
20070;DHT22;10195;50.868;4.382;2023-02-16T02:57:23;9.00;99.90
20070;DHT22;10195;50.868;4.382;2023-02-16T03:00:15;8.90;99.90
20070;DHT22;10195;50.868;4.382;2023-02-16T03:03:08;8.90;99.90
20070;DHT22;10195;50.868;4.382;2023-02-16T03:05:37;8.90;99.90
20070;DHT22;10195;50.868;4.382;2023-02-16T03:08:12;8.90;99.90
20070;DHT22;10195;50.868;4.382;2023-02-16T03:10:54;8.90;99.90
20070;DHT22;10195;50.868;4.382;2023-02-16T03:13:54;8.80;99.90
20070;DHT22;10195;50.868;4.382;2023-02-16T03:16:29;8.80;99.90
20070;DHT22;10195;50.868;4.382;2023-02-16T03:18:56;8.80;99.90
20070;DHT22;10195;50.868;4.382;2023-02-16T03:21:42;8.70;99.90
20070;DHT22;10195;50.868;4.382;2023-02-16T03:24:28;8.60;99.90
20070;DHT22;10195;50.868;4.382;2023-02-16T03:27:26;8.70;99.90
20070;DHT22;10195;50.868;4.382;2023-02-16T03:30:12;8.70;99.90
20070;DHT22;10195;50.868;4.382;2023-02-16T03:32:39;8.70;99.90
20070;DHT22;10195;50.868;4.382;2023-02-16T03:35:05;8.60;99.90
20070;DHT22;10195;50.868;4.382;2023-02-16T03:37:31;8.70;99.90
20070;DHT22;10195;50.868;4.382;2023-02-16T03:39:58;8.70;99.90
20070;DHT22;10195;50.868;4.382;2023-02-16T03:42:49;8.70;99.90
20070;DHT22;10195;50.868;4.382;2023-02-16T03:45:16;8.70;99.90
20070;DHT22;10195;50.868;4.382;2023-02-16T03:47:42;8.70;99.90
20070;DHT22;10195;50.868;4.382;2023-02-16T03:50:08;8.80;99.90
20070;DHT22;10195;50.868;4.382;2023-02-16T03:52:34;8.90;99.90
20070;DHT22;10195;50.868;4.382;2023-02-16T03:54:59;8.90;99.90
20070;DHT22;10195;50.868;4.382;2023-02-16T03:57:25;8.90;99.90
20070;DHT22;10195;50.868;4.382;2023-02-16T03:59:50;8.80;99.90
20070;DHT22;10195;50.868;4.382;2023-02-16T04:02:18;8.90;99.90
20070;DHT22;10195;50.868;4.382;2023-02-16T04:04:44;8.90;99.90
20070;DHT22;10195;50.868;4.382;2023-02-16T04:07:10;8.90;99.90
20070;DHT22;10195;50.868;4.382;2023-02-16T04:09:36;8.90;99.90
20070;DHT22;10195;50.868;4.382;2023-02-16T04:12:02;8.90;99.90
20070;DHT22;10195;50.868;4.382;2023-02-16T04:14:46;8.90;99.90
20070;DHT22;10195;50.868;4.382;2023-02-16T04:17:11;8.90;99.90
20070;DHT22;10195;50.868;4.382;2023-02-16T04:19:37;8.90;99.90
20070;DHT22;10195;50.868;4.382;2023-02-16T04:22:02;8.90;99.90
20070;DHT22;10195;50.868;4.382;2023-02-16T04:24:28;8.90;99.90
20070;DHT22;10195;50.868;4.382;2023-02-16T04:26:54;8.80;99.90
20070;DHT22;10195;50.868;4.382;2023-02-16T04:29:19;8.90;99.90
20070;DHT22;10195;50.868;4.382;2023-02-16T04:31:45;8.80;99.90
20070;DHT22;10195;50.868;4.382;2023-02-16T04:34:11;8.90;99.90
20070;DHT22;10195;50.868;4.382;2023-02-16T04:36:36;8.90;99.90
20070;DHT22;10195;50.868;4.382;2023-02-16T04:39:03;8.90;99.90
20070;DHT22;10195;50.868;4.382;2023-02-16T04:41:28;8.90;99.90
20070;DHT22;10195;50.868;4.382;2023-02-16T04:43:54;8.90;99.90
20070;DHT22;10195;50.868;4.382;2023-02-16T04:46:20;8.90;99.90
20070;DHT22;10195;50.868;4.382;2023-02-16T04:48:45;8.90;99.90
20070;DHT22;10195;50.868;4.382;2023-02-16T04:51:11;8.90;99.90
20070;DHT22;10195;50.868;4.382;2023-02-16T04:53:37;8.80;99.90
20070;DHT22;10195;50.868;4.382;2023-02-16T04:56:02;8.90;99.90
20070;DHT22;10195;50.868;4.382;2023-02-16T04:58:28;8.90;99.90
20070;DHT22;10195;50.868;4.382;2023-02-16T05:00:54;8.90;99.90
20070;DHT22;10195;50.868;4.382;2023-02-16T05:03:20;8.90;99.90
20070;DHT22;10195;50.868;4.382;2023-02-16T05:05:45;8.90;99.90
20070;DHT22;10195;50.868;4.382;2023-02-16T05:08:11;9.00;99.90
20070;DHT22;10195;50.868;4.382;2023-02-16T05:10:36;9.00;99.90
20070;DHT22;10195;50.868;4.382;2023-02-16T05:13:02;9.00;99.90
20070;DHT22;10195;50.868;4.382;2023-02-16T05:15:47;8.90;99.90
20070;DHT22;10195;50.868;4.382;2023-02-16T05:18:12;9.00;99.90
20070;DHT22;10195;50.868;4.382;2023-02-16T05:20:38;9.10;99.90
20070;DHT22;10195;50.868;4.382;2023-02-16T05:23:22;9.10;99.90
20070;DHT22;10195;50.868;4.382;2023-02-16T05:25:48;9.10;99.90
20070;DHT22;10195;50.868;4.382;2023-02-16T05:28:13;9.00;99.90
20070;DHT22;10195;50.868;4.382;2023-02-16T05:30:39;9.00;99.90
20070;DHT22;10195;50.868;4.382;2023-02-16T05:33:05;9.00;99.90
20070;DHT22;10195;50.868;4.382;2023-02-16T05:35:32;9.00;99.90
20070;DHT22;10195;50.868;4.382;2023-02-16T05:37:57;9.10;99.90
20070;DHT22;10195;50.868;4.382;2023-02-16T05:40:23;9.00;99.90
20070;DHT22;10195;50.868;4.382;2023-02-16T05:42:52;9.00;99.90
20070;DHT22;10195;50.868;4.382;2023-02-16T05:45:18;8.90;99.90
20070;DHT22;10195;50.868;4.382;2023-02-16T05:47:43;9.00;99.90
20070;DHT22;10195;50.868;4.382;2023-02-16T05:50:09;9.10;99.90
20070;DHT22;10195;50.868;4.382;2023-02-16T05:52:35;9.20;99.90
20070;DHT22;10195;50.868;4.382;2023-02-16T05:55:01;9.10;99.90
20070;DHT22;10195;50.868;4.382;2023-02-16T05:57:26;9.10;99.90
20070;DHT22;10195;50.868;4.382;2023-02-16T05:59:52;9.10;99.90
20070;DHT22;10195;50.868;4.382;2023-02-16T06:02:18;9.20;99.90
20070;DHT22;10195;50.868;4.382;2023-02-16T06:04:44;9.20;99.90
20070;DHT22;10195;50.868;4.382;2023-02-16T06:07:09;9.30;99.90
20070;DHT22;10195;50.868;4.382;2023-02-16T06:09:35;9.20;99.90
20070;DHT22;10195;50.868;4.382;2023-02-16T06:12:01;9.20;99.90
20070;DHT22;10195;50.868;4.382;2023-02-16T06:14:26;9.30;99.90
20070;DHT22;10195;50.868;4.382;2023-02-16T06:16:52;9.30;99.90
20070;DHT22;10195;50.868;4.382;2023-02-16T06:19:18;9.20;99.90
20070;DHT22;10195;50.868;4.382;2023-02-16T06:21:45;9.30;99.90
20070;DHT22;10195;50.868;4.382;2023-02-16T06:24:12;9.30;99.90
20070;DHT22;10195;50.868;4.382;2023-02-16T06:26:38;9.30;99.90
20070;DHT22;10195;50.868;4.382;2023-02-16T06:29:04;9.20;99.90
20070;DHT22;10195;50.868;4.382;2023-02-16T06:31:29;9.20;99.90
20070;DHT22;10195;50.868;4.382;2023-02-16T06:33:55;9.20;99.90
20070;DHT22;10195;50.868;4.382;2023-02-16T06:36:21;9.10;99.90
20070;DHT22;10195;50.868;4.382;2023-02-16T06:38:48;9.10;99.90
20070;DHT22;10195;50.868;4.382;2023-02-16T06:41:14;9.10;99.90
20070;DHT22;10195;50.868;4.382;2023-02-16T06:43:59;9.20;99.90
20070;DHT22;10195;50.868;4.382;2023-02-16T06:46:25;9.20;99.90
20070;DHT22;10195;50.868;4.382;2023-02-16T06:48:51;9.10;99.90
20070;DHT22;10195;50.868;4.382;2023-02-16T06:51:17;9.10;99.90
20070;DHT22;10195;50.868;4.382;2023-02-16T06:53:43;9.10;99.90
20070;DHT22;10195;50.868;4.382;2023-02-16T06:56:08;9.10;99.90
20070;DHT22;10195;50.868;4.382;2023-02-16T06:58:34;9.20;99.90
20070;DHT22;10195;50.868;4.382;2023-02-16T07:00:59;9.20;99.90
20070;DHT22;10195;50.868;4.382;2023-02-16T07:03:25;9.20;99.90
20070;DHT22;10195;50.868;4.382;2023-02-16T07:05:51;9.10;99.90
20070;DHT22;10195;50.868;4.382;2023-02-16T07:08:17;9.20;99.90
20070;DHT22;10195;50.868;4.382;2023-02-16T07:10:44;9.20;99.90
20070;DHT22;10195;50.868;4.382;2023-02-16T07:13:10;9.20;99.90
20070;DHT22;10195;50.868;4.382;2023-02-16T07:15:36;9.20;99.90
20070;DHT22;10195;50.868;4.382;2023-02-16T07:18:01;9.20;99.90
20070;DHT22;10195;50.868;4.382;2023-02-16T07:20:27;9.20;99.90
20070;DHT22;10195;50.868;4.382;2023-02-16T07:22:53;9.20;99.90
20070;DHT22;10195;50.868;4.382;2023-02-16T07:25:19;9.20;99.90
20070;DHT22;10195;50.868;4.382;2023-02-16T07:27:44;9.20;99.90
20070;DHT22;10195;50.868;4.382;2023-02-16T07:30:11;9.20;99.90
20070;DHT22;10195;50.868;4.382;2023-02-16T07:32:37;9.20;99.90
20070;DHT22;10195;50.868;4.382;2023-02-16T07:35:03;9.20;99.90
20070;DHT22;10195;50.868;4.382;2023-02-16T07:37:29;9.10;99.90
20070;DHT22;10195;50.868;4.382;2023-02-16T07:39:55;9.10;99.90
20070;DHT22;10195;50.868;4.382;2023-02-16T07:42:21;9.00;99.90
20070;DHT22;10195;50.868;4.382;2023-02-16T07:44:47;9.00;99.90
20070;DHT22;10195;50.868;4.382;2023-02-16T07:47:12;9.00;99.90
20070;DHT22;10195;50.868;4.382;2023-02-16T07:49:39;9.10;99.90
20070;DHT22;10195;50.868;4.382;2023-02-16T07:52:05;9.10;99.90
20070;DHT22;10195;50.868;4.382;2023-02-16T07:54:31;9.10;99.90
20070;DHT22;10195;50.868;4.382;2023-02-16T07:56:57;9.10;99.90
20070;DHT22;10195;50.868;4.382;2023-02-16T07:59:23;9.10;99.90
20070;DHT22;10195;50.868;4.382;2023-02-16T08:01:48;9.10;99.90
20070;DHT22;10195;50.868;4.382;2023-02-16T08:04:14;9.20;99.90
20070;DHT22;10195;50.868;4.382;2023-02-16T08:06:40;9.20;99.90
20070;DHT22;10195;50.868;4.382;2023-02-16T08:09:05;9.20;99.90
20070;DHT22;10195;50.868;4.382;2023-02-16T08:11:31;9.20;99.90
20070;DHT22;10195;50.868;4.382;2023-02-16T08:13:58;9.20;99.90
20070;DHT22;10195;50.868;4.382;2023-02-16T08:16:26;9.30;99.90
20070;DHT22;10195;50.868;4.382;2023-02-16T08:18:55;9.30;99.90
20070;DHT22;10195;50.868;4.382;2023-02-16T08:21:27;9.30;99.90
20070;DHT22;10195;50.868;4.382;2023-02-16T08:23:56;9.40;99.90
20070;DHT22;10195;50.868;4.382;2023-02-16T08:26:24;9.40;99.90
20070;DHT22;10195;50.868;4.382;2023-02-16T08:28:50;9.40;99.90
20070;DHT22;10195;50.868;4.382;2023-02-16T08:31:21;9.50;99.90
20070;DHT22;10195;50.868;4.382;2023-02-16T08:33:48;9.40;99.90
20070;DHT22;10195;50.868;4.382;2023-02-16T08:36:40;9.50;99.90
20070;DHT22;10195;50.868;4.382;2023-02-16T08:39:17;9.50;99.90
20070;DHT22;10195;50.868;4.382;2023-02-16T08:41:44;9.60;99.90
20070;DHT22;10195;50.868;4.382;2023-02-16T08:44:12;9.50;99.90
20070;DHT22;10195;50.868;4.382;2023-02-16T08:46:39;9.50;99.90
20070;DHT22;10195;50.868;4.382;2023-02-16T08:49:06;9.50;99.90
20070;DHT22;10195;50.868;4.382;2023-02-16T08:51:34;9.60;99.90
20070;DHT22;10195;50.868;4.382;2023-02-16T08:54:01;9.60;99.90
20070;DHT22;10195;50.868;4.382;2023-02-16T08:56:28;9.60;99.90
20070;DHT22;10195;50.868;4.382;2023-02-16T08:58:58;9.40;99.90
20070;DHT22;10195;50.868;4.382;2023-02-16T09:01:24;9.50;99.90
20070;DHT22;10195;50.868;4.382;2023-02-16T09:03:50;9.50;99.90
20070;DHT22;10195;50.868;4.382;2023-02-16T09:06:18;9.60;99.90
20070;DHT22;10195;50.868;4.382;2023-02-16T09:08:52;9.60;99.90
20070;DHT22;10195;50.868;4.382;2023-02-16T09:11:19;9.70;99.90
20070;DHT22;10195;50.868;4.382;2023-02-16T09:13:45;9.60;99.90
20070;DHT22;10195;50.868;4.382;2023-02-16T09:16:14;9.70;99.90
20070;DHT22;10195;50.868;4.382;2023-02-16T09:18:41;9.80;99.90
20070;DHT22;10195;50.868;4.382;2023-02-16T09:21:09;9.90;99.90
20070;DHT22;10195;50.868;4.382;2023-02-16T09:23:39;10.00;99.90
20070;DHT22;10195;50.868;4.382;2023-02-16T09:26:06;10.10;99.90
20070;DHT22;10195;50.868;4.382;2023-02-16T09:28:33;10.20;99.90
20070;DHT22;10195;50.868;4.382;2023-02-16T09:30:59;10.30;99.90
20070;DHT22;10195;50.868;4.382;2023-02-16T09:33:25;10.20;99.90
20070;DHT22;10195;50.868;4.382;2023-02-16T09:35:52;10.20;99.90
20070;DHT22;10195;50.868;4.382;2023-02-16T09:38:18;10.00;99.90
20070;DHT22;10195;50.868;4.382;2023-02-16T09:40:46;9.90;99.90
20070;DHT22;10195;50.868;4.382;2023-02-16T09:46:03;10.00;99.90
20070;DHT22;10195;50.868;4.382;2023-02-16T09:48:37;10.00;99.90
20070;DHT22;10195;50.868;4.382;2023-02-16T09:51:04;9.90;99.90
20070;DHT22;10195;50.868;4.382;2023-02-16T09:53:36;9.70;99.90
20070;DHT22;10195;50.868;4.382;2023-02-16T09:59:10;9.80;99.90
20070;DHT22;10195;50.868;4.382;2023-02-16T10:01:58;9.80;99.90
20070;DHT22;10195;50.868;4.382;2023-02-16T10:04:54;9.80;99.90
20070;DHT22;10195;50.868;4.382;2023-02-16T10:07:33;9.90;99.90
20070;DHT22;10195;50.868;4.382;2023-02-16T10:10:05;10.00;99.90
20070;DHT22;10195;50.868;4.382;2023-02-16T10:12:37;10.00;99.90
20070;DHT22;10195;50.868;4.382;2023-02-16T10:22:43;9.90;99.90
20070;DHT22;10195;50.868;4.382;2023-02-16T10:25:33;10.00;99.90
20070;DHT22;10195;50.868;4.382;2023-02-16T10:28:19;10.10;99.90
20070;DHT22;10195;50.868;4.382;2023-02-16T10:39:35;10.50;99.90
20070;DHT22;10195;50.868;4.382;2023-02-16T10:44:44;11.10;99.90
20070;DHT22;10195;50.868;4.382;2023-02-16T10:47:34;11.30;99.90
20070;DHT22;10195;50.868;4.382;2023-02-16T10:50:01;11.80;99.90
20070;DHT22;10195;50.868;4.382;2023-02-16T10:52:31;11.90;99.90
20070;DHT22;10195;50.868;4.382;2023-02-16T10:54:58;12.00;99.90
20070;DHT22;10195;50.868;4.382;2023-02-16T10:59:49;12.20;99.90
20070;DHT22;10195;50.868;4.382;2023-02-16T11:02:41;12.40;99.90
20070;DHT22;10195;50.868;4.382;2023-02-16T11:05:34;12.50;99.90
20070;DHT22;10195;50.868;4.382;2023-02-16T11:08:01;12.70;99.90
20070;DHT22;10195;50.868;4.382;2023-02-16T11:10:54;12.70;99.90
20070;DHT22;10195;50.868;4.382;2023-02-16T11:13:25;13.00;99.90
20070;DHT22;10195;50.868;4.382;2023-02-16T11:16:08;12.90;99.90
20070;DHT22;10195;50.868;4.382;2023-02-16T11:18:42;13.00;99.90
20070;DHT22;10195;50.868;4.382;2023-02-16T11:21:10;13.00;99.90
20070;DHT22;10195;50.868;4.382;2023-02-16T11:23:43;12.50;99.90
20070;DHT22;10195;50.868;4.382;2023-02-16T11:26:25;12.80;99.90
20070;DHT22;10195;50.868;4.382;2023-02-16T11:29:18;13.20;99.90
20070;DHT22;10195;50.868;4.382;2023-02-16T11:31:47;13.40;99.90
20070;DHT22;10195;50.868;4.382;2023-02-16T11:36:49;13.10;99.90
20070;DHT22;10195;50.868;4.382;2023-02-16T11:39:24;13.30;99.90
20070;DHT22;10195;50.868;4.382;2023-02-16T11:41:57;13.40;99.90
20070;DHT22;10195;50.868;4.382;2023-02-16T11:46:51;13.60;99.90
20070;DHT22;10195;50.868;4.382;2023-02-16T11:49:39;13.50;99.90
20070;DHT22;10195;50.868;4.382;2023-02-16T11:52:26;13.50;99.90
20070;DHT22;10195;50.868;4.382;2023-02-16T11:54:56;13.80;99.90
20070;DHT22;10195;50.868;4.382;2023-02-16T11:57:28;14.00;99.90
20070;DHT22;10195;50.868;4.382;2023-02-16T11:59:56;14.10;99.90
20070;DHT22;10195;50.868;4.382;2023-02-16T12:13:23;14.00;99.90
20070;DHT22;10195;50.868;4.382;2023-02-16T12:21:13;14.10;99.90
20070;DHT22;10195;50.868;4.382;2023-02-16T12:29:15;14.10;99.90
20070;DHT22;10195;50.868;4.382;2023-02-16T12:43:54;14.10;99.90
20070;DHT22;10195;50.868;4.382;2023-02-16T12:46:34;14.00;99.90
20070;DHT22;10195;50.868;4.382;2023-02-16T12:49:23;14.10;99.90
20070;DHT22;10195;50.868;4.382;2023-02-16T12:52:02;14.20;99.90
20070;DHT22;10195;50.868;4.382;2023-02-16T12:57:11;14.10;99.90
20070;DHT22;10195;50.868;4.382;2023-02-16T12:59:45;14.00;99.90
20070;DHT22;10195;50.868;4.382;2023-02-16T13:02:21;13.90;99.90
20070;DHT22;10195;50.868;4.382;2023-02-16T13:07:44;14.00;99.90
20070;DHT22;10195;50.868;4.382;2023-02-16T13:10:29;14.10;99.90
20070;DHT22;10195;50.868;4.382;2023-02-16T13:13:12;14.10;99.90
20070;DHT22;10195;50.868;4.382;2023-02-16T13:15:46;14.30;99.90
20070;DHT22;10195;50.868;4.382;2023-02-16T13:18:25;14.40;99.90
20070;DHT22;10195;50.868;4.382;2023-02-16T13:20:57;14.40;99.90
20070;DHT22;10195;50.868;4.382;2023-02-16T13:26:06;14.30;99.90
20070;DHT22;10195;50.868;4.382;2023-02-16T13:28:46;14.40;99.90
20070;DHT22;10195;50.868;4.382;2023-02-16T13:31:43;14.30;99.90
20070;DHT22;10195;50.868;4.382;2023-02-16T13:40:03;13.90;99.90
20070;DHT22;10195;50.868;4.382;2023-02-16T13:42:45;13.70;99.90
20070;DHT22;10195;50.868;4.382;2023-02-16T13:45:23;13.60;99.90
20070;DHT22;10195;50.868;4.382;2023-02-16T13:47:52;13.80;99.90
20070;DHT22;10195;50.868;4.382;2023-02-16T13:52:51;13.80;99.90
20070;DHT22;10195;50.868;4.382;2023-02-16T13:55:24;13.80;99.90
20070;DHT22;10195;50.868;4.382;2023-02-16T13:58:01;13.80;99.90
20070;DHT22;10195;50.868;4.382;2023-02-16T14:03:09;13.50;99.90
20070;DHT22;10195;50.868;4.382;2023-02-16T14:05:39;13.50;99.90
20070;DHT22;10195;50.868;4.382;2023-02-16T14:08:26;13.50;99.90
20070;DHT22;10195;50.868;4.382;2023-02-16T14:13:31;13.50;99.90
20070;DHT22;10195;50.868;4.382;2023-02-16T14:16:07;13.50;99.90
20070;DHT22;10195;50.868;4.382;2023-02-16T14:19:02;13.50;99.90
20070;DHT22;10195;50.868;4.382;2023-02-16T14:21:35;13.50;99.90
20070;DHT22;10195;50.868;4.382;2023-02-16T14:24:02;13.50;99.90
20070;DHT22;10195;50.868;4.382;2023-02-16T14:26:30;13.40;99.90
20070;DHT22;10195;50.868;4.382;2023-02-16T14:29:16;13.40;99.90
20070;DHT22;10195;50.868;4.382;2023-02-16T14:32:05;13.40;99.90
20070;DHT22;10195;50.868;4.382;2023-02-16T14:34:38;13.40;99.90
20070;DHT22;10195;50.868;4.382;2023-02-16T14:39:46;13.80;99.90
20070;DHT22;10195;50.868;4.382;2023-02-16T14:45:00;13.90;99.90
20070;DHT22;10195;50.868;4.382;2023-02-16T14:50:57;13.70;99.90
20070;DHT22;10195;50.868;4.382;2023-02-16T14:53:41;13.80;99.90
20070;DHT22;10195;50.868;4.382;2023-02-16T14:56:26;13.80;99.90
20070;DHT22;10195;50.868;4.382;2023-02-16T14:59:03;13.90;99.90
20070;DHT22;10195;50.868;4.382;2023-02-16T15:01:42;14.10;99.90
20070;DHT22;10195;50.868;4.382;2023-02-16T15:04:09;14.20;99.90
20070;DHT22;10195;50.868;4.382;2023-02-16T15:06:41;14.10;99.90
20070;DHT22;10195;50.868;4.382;2023-02-16T15:09:31;14.20;99.90
20070;DHT22;10195;50.868;4.382;2023-02-16T15:12:01;14.20;99.90
20070;DHT22;10195;50.868;4.382;2023-02-16T15:17:25;14.10;99.90
20070;DHT22;10195;50.868;4.382;2023-02-16T15:19:53;13.90;99.90
20070;DHT22;10195;50.868;4.382;2023-02-16T15:22:22;13.90;99.90
20070;DHT22;10195;50.868;4.382;2023-02-16T15:25:05;13.90;99.90
20070;DHT22;10195;50.868;4.382;2023-02-16T15:27:32;13.90;99.90
20070;DHT22;10195;50.868;4.382;2023-02-16T15:30:21;13.80;99.90
20070;DHT22;10195;50.868;4.382;2023-02-16T15:32:50;13.50;99.90
20070;DHT22;10195;50.868;4.382;2023-02-16T15:35:27;13.50;99.90
20070;DHT22;10195;50.868;4.382;2023-02-16T15:40:38;13.30;99.90
20070;DHT22;10195;50.868;4.382;2023-02-16T15:43:31;13.20;99.90
20070;DHT22;10195;50.868;4.382;2023-02-16T15:45:59;13.10;99.90
20070;DHT22;10195;50.868;4.382;2023-02-16T15:48:29;13.00;99.90
20070;DHT22;10195;50.868;4.382;2023-02-16T15:51:06;13.00;99.90
20070;DHT22;10195;50.868;4.382;2023-02-16T15:56:23;13.10;99.90
20070;DHT22;10195;50.868;4.382;2023-02-16T15:58:50;13.00;99.90
20070;DHT22;10195;50.868;4.382;2023-02-16T16:01:24;13.00;99.90
20070;DHT22;10195;50.868;4.382;2023-02-16T16:03:50;12.80;99.90
20070;DHT22;10195;50.868;4.382;2023-02-16T16:06:16;12.70;99.90
20070;DHT22;10195;50.868;4.382;2023-02-16T16:08:44;12.60;99.90
20070;DHT22;10195;50.868;4.382;2023-02-16T16:11:10;12.60;99.90
20070;DHT22;10195;50.868;4.382;2023-02-16T16:13:36;12.70;99.90
20070;DHT22;10195;50.868;4.382;2023-02-16T16:16:02;12.70;99.90
20070;DHT22;10195;50.868;4.382;2023-02-16T16:18:48;12.60;99.90
20070;DHT22;10195;50.868;4.382;2023-02-16T16:21:44;12.60;99.90
20070;DHT22;10195;50.868;4.382;2023-02-16T16:24:10;12.60;99.90
20070;DHT22;10195;50.868;4.382;2023-02-16T16:26:57;12.60;99.90
20070;DHT22;10195;50.868;4.382;2023-02-16T16:29:33;12.60;99.90
20070;DHT22;10195;50.868;4.382;2023-02-16T16:32:00;12.50;99.90
20070;DHT22;10195;50.868;4.382;2023-02-16T16:36:57;12.40;99.90
20070;DHT22;10195;50.868;4.382;2023-02-16T16:39:26;12.30;99.90
20070;DHT22;10195;50.868;4.382;2023-02-16T16:44:32;12.20;99.90
20070;DHT22;10195;50.868;4.382;2023-02-16T16:47:37;12.20;99.90
20070;DHT22;10195;50.868;4.382;2023-02-16T16:52:41;12.30;99.90
20070;DHT22;10195;50.868;4.382;2023-02-16T16:58:13;12.20;99.90
20070;DHT22;10195;50.868;4.382;2023-02-16T17:00:39;12.20;99.90
20070;DHT22;10195;50.868;4.382;2023-02-16T17:03:08;12.30;99.90
20070;DHT22;10195;50.868;4.382;2023-02-16T17:05:34;12.20;99.90
20070;DHT22;10195;50.868;4.382;2023-02-16T17:08:02;12.20;99.90
20070;DHT22;10195;50.868;4.382;2023-02-16T17:10:28;12.10;99.90
20070;DHT22;10195;50.868;4.382;2023-02-16T17:12:56;12.20;99.90
20070;DHT22;10195;50.868;4.382;2023-02-16T17:18:03;12.10;99.90
20070;DHT22;10195;50.868;4.382;2023-02-16T17:20:30;12.10;99.90
20070;DHT22;10195;50.868;4.382;2023-02-16T17:22:55;12.00;99.90
20070;DHT22;10195;50.868;4.382;2023-02-16T17:25:21;12.10;99.90
20070;DHT22;10195;50.868;4.382;2023-02-16T17:27:47;12.10;99.90
20070;DHT22;10195;50.868;4.382;2023-02-16T17:30:13;12.10;99.90
20070;DHT22;10195;50.868;4.382;2023-02-16T17:32:38;12.10;99.90
20070;DHT22;10195;50.868;4.382;2023-02-16T17:35:04;12.00;99.90
20070;DHT22;10195;50.868;4.382;2023-02-16T17:37:34;12.10;99.90
20070;DHT22;10195;50.868;4.382;2023-02-16T17:40:00;12.10;99.90
20070;DHT22;10195;50.868;4.382;2023-02-16T17:42:26;12.10;99.90
20070;DHT22;10195;50.868;4.382;2023-02-16T17:44:52;12.10;99.90
20070;DHT22;10195;50.868;4.382;2023-02-16T17:47:17;12.10;99.90
20070;DHT22;10195;50.868;4.382;2023-02-16T17:49:43;12.10;99.90
20070;DHT22;10195;50.868;4.382;2023-02-16T17:52:10;12.00;99.90
20070;DHT22;10195;50.868;4.382;2023-02-16T17:54:36;12.00;99.90
20070;DHT22;10195;50.868;4.382;2023-02-16T17:57:01;11.90;99.90
20070;DHT22;10195;50.868;4.382;2023-02-16T17:59:27;11.90;99.90
20070;DHT22;10195;50.868;4.382;2023-02-16T18:01:53;11.90;99.90
20070;DHT22;10195;50.868;4.382;2023-02-16T18:04:18;12.00;99.90
20070;DHT22;10195;50.868;4.382;2023-02-16T18:06:44;11.90;99.90
20070;DHT22;10195;50.868;4.382;2023-02-16T18:09:14;12.00;99.90
20070;DHT22;10195;50.868;4.382;2023-02-16T18:11:41;12.00;99.90
20070;DHT22;10195;50.868;4.382;2023-02-16T18:14:07;11.80;99.90
20070;DHT22;10195;50.868;4.382;2023-02-16T18:16:33;11.80;99.90
20070;DHT22;10195;50.868;4.382;2023-02-16T18:18:59;11.70;99.90
20070;DHT22;10195;50.868;4.382;2023-02-16T18:21:25;11.60;99.90
20070;DHT22;10195;50.868;4.382;2023-02-16T18:23:51;11.60;99.90
20070;DHT22;10195;50.868;4.382;2023-02-16T18:26:16;11.50;99.90
20070;DHT22;10195;50.868;4.382;2023-02-16T18:28:43;11.60;99.90